Time;durP1;ratioP1;P1;durP2;ratioP2;P2;SDS_P1;SDS_P2;PMS_P1;PMS_P2;Temp;Humidity;BMP_temperature;BMP_pressure;BME280_temperature;BME280_humidity;BME280_pressure;Samples;Min_cycle;Max_cycle;Signal;HPM_P1;HPM_P2
2022/09/22 00:01:07;;;;;;;1.20;1.10;;;;;;;8.51;100.00;99453.72;1796965;78;21463;-51
2022/09/22 00:03:39;;;;;;;1.32;0.93;;;;;;;8.47;100.00;99461.52;1797834;78;21053;-50
2022/09/22 00:06:11;;;;;;;1.67;1.30;;;;;;;8.45;100.00;99454.46;1799599;78;21425;-51
2022/09/22 00:08:42;;;;;;;1.05;0.95;;;;;;;8.45;100.00;99457.14;1803344;78;21481;-50
2022/09/22 00:11:16;;;;;;;1.30;1.10;;;;;;;8.43;100.00;99451.84;1778464;78;21051;-50
2022/09/22 00:13:58;;;;;;;3.55;1.27;;;;;;;8.42;100.00;99453.28;1800284;77;21484;-51
2022/09/22 00:16:32;;;;;;;1.90;1.27;;;;;;;8.39;100.00;99451.59;1775492;78;21530;-50
2022/09/22 00:18:58;;;;;;;3.67;1.07;;;;;;;8.39;100.00;99456.09;1801761;78;20977;-51
2022/09/22 00:21:29;;;;;;;2.15;1.20;;;;;;;8.37;100.00;99454.80;1776736;78;20970;-50
2022/09/22 00:23:56;;;;;;;2.25;0.93;;;;;;;8.34;100.00;99457.14;1791698;78;21036;-51
2022/09/22 00:26:23;;;;;;;4.85;1.20;;;;;;;8.33;100.00;99452.75;1793440;78;21567;-50
2022/09/22 00:28:50;;;;;;;2.27;1.17;;;;;;;8.30;100.00;99450.16;1774267;80;21029;-49
2022/09/22 00:31:20;;;;;;;4.83;1.00;;;;;;;8.29;100.00;99448.41;1771602;80;21081;-50
2022/09/22 00:33:46;;;;;;;2.62;1.10;;;;;;;8.30;100.00;99447.47;1774402;80;21516;-51
2022/09/22 00:36:13;;;;;;;1.30;1.20;;;;;;;8.33;100.00;99453.22;1805907;78;20999;-50
2022/09/22 00:38:42;;;;;;;2.40;1.42;;;;;;;8.32;100.00;99452.34;1795093;77;21398;-50
2022/09/22 00:41:17;;;;;;;3.12;1.57;;;;;;;8.29;100.00;99453.77;1758291;79;21977;-50
2022/09/22 00:43:47;;;;;;;3.70;1.47;;;;;;;8.27;100.00;99452.95;1776442;78;20989;-50
2022/09/22 00:46:24;;;;;;;4.72;1.47;;;;;;;8.24;100.00;99454.45;1783054;79;21047;-51
2022/09/22 00:48:57;;;;;;;2.52;1.25;;;;;;;8.22;100.00;99456.32;1781239;79;21207;-51
2022/09/22 00:51:26;;;;;;;1.67;1.57;;;;;;;8.19;100.00;99456.91;1782601;78;22241;-50
2022/09/22 00:53:53;;;;;;;2.67;1.20;;;;;;;8.17;100.00;99453.41;1785039;79;21070;-51
2022/09/22 00:56:29;;;;;;;1.52;1.35;;;;;;;8.17;100.00;99446.71;1773621;79;21029;-49
2022/09/22 00:58:59;;;;;;;2.25;2.00;;;;;;;8.18;100.00;99453.82;1754157;79;21062;-51
2022/09/22 01:01:26;;;;;;;5.37;1.40;;;;;;;8.18;100.00;99453.35;1780059;79;21605;-51
2022/09/22 01:03:53;;;;;;;2.50;1.62;;;;;;;8.21;100.00;99453.70;1773256;79;21628;-50
2022/09/22 01:06:25;;;;;;;1.62;1.27;;;;;;;8.24;100.00;99452.23;1780109;79;21057;-51
2022/09/22 01:08:52;;;;;;;4.12;2.20;;;;;;;8.27;100.00;99449.41;1786001;78;21075;-51
2022/09/22 01:11:19;;;;;;;2.22;2.08;;;;;;;8.28;100.00;99448.00;1781628;78;21552;-50
2022/09/22 01:14:31;;;;;;;2.50;2.33;;;;;;;8.31;100.00;99453.27;1782848;79;21045;-46
2022/09/22 01:17:16;;;;;;;5.58;2.20;;;;;;;8.29;100.00;99449.75;1776472;79;21519;-49
2022/09/22 01:20:06;;;;;;;2.33;2.12;;;;;;;8.28;100.00;99452.02;1781462;79;21508;-46
2022/09/22 01:23:17;;;;;;;1.90;1.67;;;;;;;8.29;100.00;99448.41;1719514;78;21594;-47
2022/09/22 01:26:37;;;;;;;8.33;2.47;;;;;;;8.30;100.00;99451.96;1754812;80;21089;-48
2022/09/22 01:29:45;;;;;;;1.80;1.50;;;;;;;8.30;100.00;99448.81;1793182;78;21085;-46
2022/09/22 01:32:26;;;;;;;3.58;1.75;;;;;;;8.33;100.00;99454.09;1692483;83;21602;-48
2022/09/22 01:35:01;;;;;;;5.90;1.45;;;;;;;8.35;100.00;99450.84;1675136;83;21112;-46
2022/09/22 01:37:41;;;;;;;3.87;1.98;;;;;;;8.38;100.00;99455.68;1740668;79;21583;-47
2022/09/22 01:40:27;;;;;;;1.92;1.82;;;;;;;8.42;100.00;99458.14;1798025;78;21041;-48
2022/09/22 01:43:02;;;;;;;1.77;1.67;;;;;;;8.44;100.00;99448.22;1801630;78;21017;-48
2022/09/22 01:45:28;;;;;;;7.28;1.75;;;;;;;8.46;100.00;99449.50;1778621;78;21608;-49
2022/09/22 01:47:58;;;;;;;3.83;2.33;;;;;;;8.48;100.00;99450.31;1774773;78;21078;-47
2022/09/22 01:50:30;;;;;;;3.02;1.50;;;;;;;8.48;100.00;99444.95;1779351;80;21539;-47
2022/09/22 01:52:59;;;;;;;1.60;1.40;;;;;;;8.48;100.00;99450.31;1794978;78;21039;-46
2022/09/22 01:55:35;;;;;;;1.40;1.30;;;;;;;8.48;100.00;99450.31;1793555;78;21096;-46
2022/09/22 02:01:17;;;;;;;1.63;1.53;;;;;;;8.49;100.00;99438.65;1766479;79;22674;-46
2022/09/22 02:04:02;;;;;;;1.60;1.40;;;;;;;8.48;100.00;99449.84;1735627;80;21144;-46
2022/09/22 02:06:36;;;;;;;5.03;1.40;;;;;;;8.49;100.00;99447.57;1736838;80;21073;-47
2022/09/22 02:09:08;;;;;;;;;;;;;;;8.49;100.00;99445.36;1710037;81;21552;-49
2022/09/22 02:11:35;;;;;;;1.30;0.90;;;;;;;8.51;100.00;99451.50;1735756;80;20834;-46
2022/09/22 02:14:02;;;;;;;1.65;1.55;;;;;;;8.49;100.00;99446.70;1728952;80;21344;-47
2022/09/22 02:16:29;;;;;;;2.17;1.10;;;;;;;8.50;100.00;99447.10;1727479;80;21002;-46
2022/09/22 02:19:10;;;;;;;1.10;1.00;;;;;;;8.51;100.00;99444.80;1708965;80;21582;-47
2022/09/22 02:21:39;;;;;;;1.17;0.80;;;;;;;8.51;100.00;99438.95;1728662;80;21054;-50
2022/09/22 02:24:06;;;;;;;1.42;0.90;;;;;;;8.51;100.00;99438.09;1727772;80;21033;-46
2022/09/22 02:26:34;;;;;;;1.40;1.00;;;;;;;8.52;100.00;99438.02;1738601;80;21476;-46
2022/09/22 02:29:08;;;;;;;1.22;0.80;;;;;;;8.54;100.00;99440.64;1731605;80;21041;-46
2022/09/22 02:31:36;;;;;;;1.42;1.12;;;;;;;8.52;100.00;99432.66;1734912;80;21713;-48
2022/09/22 02:34:04;;;;;;;1.50;0.95;;;;;;;8.51;100.00;99440.77;1731350;81;21970;-49
2022/09/22 02:36:48;;;;;;;4.42;1.10;;;;;;;8.52;100.00;99435.81;1730092;80;21052;-46
2022/09/22 02:39:42;;;;;;;3.75;1.82;;;;;;;8.51;100.00;99434.94;1732382;81;21120;-46
2022/09/22 02:42:26;;;;;;;1.32;1.10;;;;;;;8.51;100.00;99431.38;1731354;80;21519;-47
2022/09/22 02:45:04;;;;;;;1.17;0.80;;;;;;;8.46;100.00;99424.02;1735186;80;21544;-48
2022/09/22 02:47:48;;;;;;;1.40;0.93;;;;;;;8.41;100.00;99424.24;1734008;80;21067;-48
2022/09/22 02:50:16;;;;;;;1.52;1.10;;;;;;;8.36;100.00;99431.60;1733823;80;21041;-49
2022/09/22 02:52:43;;;;;;;2.35;0.90;;;;;;;8.32;100.00;99426.86;1710181;80;21349;-47
2022/09/22 02:55:10;;;;;;;1.50;1.07;;;;;;;8.30;100.00;99429.17;1730772;81;21519;-48
2022/09/22 02:57:36;;;;;;;1.30;0.90;;;;;;;8.28;100.00;99431.91;1725394;81;21423;-46
2022/09/22 03:00:04;;;;;;;1.75;1.00;;;;;;;8.28;100.00;99430.57;1696612;81;21154;-47
2022/09/22 03:02:31;;;;;;;2.77;0.90;;;;;;;8.28;100.00;99428.36;1681196;82;21608;-48
2022/09/22 03:04:58;;;;;;;2.10;1.00;;;;;;;8.29;100.00;99430.10;1689737;82;21055;-48
2022/09/22 03:07:24;;;;;;;2.72;0.90;;;;;;;8.29;100.00;99430.98;1683999;82;21087;-46
2022/09/22 03:09:51;;;;;;;1.40;1.10;;;;;;;8.29;100.00;99433.66;1682864;82;21742;-49
2022/09/22 03:12:17;;;;;;;2.70;1.50;;;;;;;8.29;100.00;99429.63;1681981;82;21124;-49
2022/09/22 03:14:44;;;;;;;0.95;0.85;;;;;;;8.29;100.00;99433.66;1679737;82;21601;-48
2022/09/22 03:17:10;;;;;;;1.40;1.05;;;;;;;8.29;100.00;99440.36;1682044;82;21046;-47
2022/09/22 03:19:37;;;;;;;1.32;0.90;;;;;;;8.29;100.00;99441.70;1684652;82;21063;-49
2022/09/22 03:22:04;;;;;;;1.10;0.82;;;;;;;8.30;100.00;99440.77;1679499;83;21879;-51
2022/09/22 03:24:31;;;;;;;1.02;0.90;;;;;;;8.29;100.00;99437.68;1686032;82;21739;-50
2022/09/22 03:26:57;;;;;;;1.75;1.00;;;;;;;8.30;100.00;99437.22;1706967;82;20995;-46
2022/09/22 03:29:23;;;;;;;2.22;0.90;;;;;;;8.31;100.00;99433.62;1701941;82;21348;-46
2022/09/22 03:31:49;;;;;;;0.93;0.82;;;;;;;8.31;100.00;99435.84;1703733;82;20989;-48
2022/09/22 03:34:16;;;;;;;1.02;0.75;;;;;;;8.33;100.00;99436.66;1703711;82;22287;-47
2022/09/22 03:36:42;;;;;;;1.30;0.85;;;;;;;8.34;100.00;99433.00;1708477;82;21045;-48
2022/09/22 03:39:09;;;;;;;1.20;1.00;;;;;;;8.36;100.00;99445.02;1700974;82;21009;-48
2022/09/22 03:41:36;;;;;;;1.00;0.90;;;;;;;8.37;100.00;99449.91;1702583;82;21912;-47
2022/09/22 03:44:03;;;;;;;1.12;1.02;;;;;;;8.38;100.00;99454.34;1700026;82;21058;-47
2022/09/22 03:46:29;;;;;;;4.75;1.30;;;;;;;8.37;100.00;99448.56;1701209;82;21071;-47
2022/09/22 03:49:02;;;;;;;1.20;1.10;;;;;;;8.36;100.00;99450.38;1701948;82;21370;-48
2022/09/22 03:51:24;;;;;;;1.27;1.02;;;;;;;8.35;100.00;99455.33;1696301;82;21590;-49
2022/09/22 03:53:53;;;;;;;2.55;0.80;;;;;;;8.34;100.00;99460.29;1700066;82;21085;-48
2022/09/22 03:56:19;;;;;;;1.90;0.98;;;;;;;8.32;100.00;99464.88;1698451;82;22187;-49
2022/09/22 03:58:46;;;;;;;1.07;0.98;;;;;;;8.30;100.00;99464.91;1693880;82;21554;-48
2022/09/22 04:01:13;;;;;;;2.58;1.00;;;;;;;8.32;100.00;99464.88;1696416;82;21116;-48
2022/09/22 04:03:39;;;;;;;1.02;0.93;;;;;;;8.33;100.00;99457.23;1696420;82;21050;-49
2022/09/22 04:06:07;;;;;;;2.17;0.90;;;;;;;8.36;100.00;99458.42;1688845;82;21113;-48
2022/09/22 04:08:34;;;;;;;1.80;1.20;;;;;;;8.39;100.00;99458.77;1688085;83;21364;-47
2022/09/22 04:11:02;;;;;;;1.37;1.22;;;;;;;8.41;100.00;99464.48;1693414;82;21712;-48
2022/09/22 04:13:28;;;;;;;1.62;1.40;;;;;;;8.44;100.00;99462.11;1698035;82;21556;-48
2022/09/22 04:15:55;;;;;;;2.33;1.35;;;;;;;8.45;100.00;99461.17;1691020;82;22155;-49
2022/09/22 04:18:21;;;;;;;3.67;1.52;;;;;;;8.49;100.00;99463.66;1692071;82;21081;-50
2022/09/22 04:20:48;;;;;;;1.67;1.55;;;;;;;8.53;100.00;99465.72;1687264;82;21089;-47
2022/09/22 04:23:14;;;;;;;5.40;1.72;;;;;;;8.55;100.00;99475.92;1687475;82;21647;-47
2022/09/22 04:25:41;;;;;;;1.67;1.57;;;;;;;8.58;100.00;99468.63;1690246;82;21109;-49
2022/09/22 04:28:07;;;;;;;6.50;2.62;;;;;;;8.61;100.00;99460.88;1685768;82;21081;-49
2022/09/22 04:30:34;;;;;;;2.77;2.60;;;;;;;8.63;100.00;99461.70;1690945;82;21592;-49
2022/09/22 04:33:00;;;;;;;3.08;2.47;;;;;;;8.66;100.00;99466.94;1692075;82;21097;-49
2022/09/22 04:35:27;;;;;;;2.30;2.02;;;;;;;8.68;100.00;99466.38;1686793;82;21658;-48
2022/09/22 04:37:55;;;;;;;2.90;2.70;;;;;;;8.71;100.00;99465.78;1695293;82;21058;-48
2022/09/22 04:40:21;;;;;;;3.00;2.67;;;;;;;8.75;100.00;99471.89;1693809;82;21102;-50
2022/09/22 04:42:49;;;;;;;3.02;2.83;;;;;;;8.79;100.00;99479.31;1691190;82;21101;-49
2022/09/22 04:45:15;;;;;;;3.27;2.72;;;;;;;8.81;100.00;99476.09;1690661;82;21144;-50
2022/09/22 04:47:50;;;;;;;3.67;3.15;;;;;;;8.81;100.00;99469.39;1694203;82;21708;-49
2022/09/22 04:50:17;;;;;;;4.35;4.05;;;;;;;8.82;100.00;99472.48;1697154;81;21545;-49
2022/09/22 04:52:51;;;;;;;3.33;3.12;;;;;;;8.82;100.00;99474.69;1699425;81;21101;-51
2022/09/22 04:55:19;;;;;;;4.03;3.23;;;;;;;8.83;100.00;99479.12;1695561;82;21614;-47
2022/09/22 04:57:54;;;;;;;4.00;3.12;;;;;;;8.82;100.00;99484.09;1693264;81;21353;-49
2022/09/22 05:00:22;;;;;;;4.72;3.80;;;;;;;8.81;100.00;99481.00;1692944;82;21623;-47
2022/09/22 05:02:48;;;;;;;4.55;3.12;;;;;;;8.81;100.00;99479.66;1714946;82;21021;-47
2022/09/22 05:05:15;;;;;;;6.70;3.55;;;;;;;8.82;100.00;99477.38;1713506;82;21020;-46
2022/09/22 05:07:45;;;;;;;3.65;3.40;;;;;;;8.83;100.00;99483.62;1716116;82;21020;-46
2022/09/22 05:10:12;;;;;;;3.72;3.42;;;;;;;8.85;100.00;99487.95;1717303;82;21122;-46
2022/09/22 05:12:40;;;;;;;4.15;3.85;;;;;;;8.87;100.00;99492.78;1711499;82;21687;-48
2022/09/22 05:15:08;;;;;;;4.15;3.85;;;;;;;8.87;100.00;99486.55;1712504;82;21097;-47
2022/09/22 05:17:35;;;;;;;3.62;3.30;;;;;;;8.89;100.00;99487.36;1712423;82;21085;-48
2022/09/22 05:20:05;;;;;;;2.77;2.50;;;;;;;8.92;100.00;99492.59;1712916;82;21068;-50
2022/09/22 05:22:31;;;;;;;3.55;3.25;;;;;;;8.94;100.00;99498.73;1719460;82;21037;-48
2022/09/22 05:24:59;;;;;;;5.33;2.80;;;;;;;8.95;100.00;99505.86;1709830;81;22689;-47
2022/09/22 05:27:26;;;;;;;4.45;4.10;;;;;;;8.95;100.00;99505.86;1712822;82;21068;-47
2022/09/22 05:29:52;;;;;;;4.47;4.05;;;;;;;8.93;100.00;99504.58;1708278;82;22323;-48
2022/09/22 05:32:18;;;;;;;5.08;4.33;;;;;;;8.96;100.00;99507.60;1712507;82;21071;-50
2022/09/22 05:34:45;;;;;;;4.42;4.05;;;;;;;8.98;100.00;99507.07;1713038;82;21025;-48
2022/09/22 05:37:11;;;;;;;3.90;3.65;;;;;;;8.98;100.00;99507.94;1708742;82;21626;-50
2022/09/22 05:39:38;;;;;;;4.80;3.70;;;;;;;8.98;100.00;99507.94;1708696;82;21045;-48
2022/09/22 05:42:05;;;;;;;8.58;4.35;;;;;;;8.99;100.00;99513.72;1710359;82;21020;-48
2022/09/22 05:44:31;;;;;;;6.62;3.75;;;;;;;9.01;100.00;99509.16;1707601;82;21067;-50
2022/09/22 05:46:57;;;;;;;4.47;4.08;;;;;;;9.04;100.00;99505.44;1713389;82;21056;-48
2022/09/22 05:49:24;;;;;;;4.60;4.20;;;;;;;9.07;100.00;99512.02;1711676;82;21606;-47
2022/09/22 05:51:54;;;;;;;5.95;4.20;;;;;;;9.09;100.00;99511.48;1712286;82;21182;-49
2022/09/22 05:54:18;;;;;;;5.42;4.92;;;;;;;9.10;100.00;99512.73;1710500;82;21051;-49
2022/09/22 05:56:45;;;;;;;4.37;4.08;;;;;;;9.10;100.00;99506.52;1714838;82;21355;-51
2022/09/22 05:59:12;;;;;;;4.53;4.03;;;;;;;9.11;100.00;99504.21;1711224;82;21414;-50
2022/09/22 06:01:38;;;;;;;7.78;4.45;;;;;;;9.10;100.00;99506.02;1699888;82;21656;-51
2022/09/22 06:04:04;;;;;;;4.78;4.47;;;;;;;9.09;100.00;99508.80;1689525;82;21058;-47
2022/09/22 06:06:31;;;;;;;4.78;4.20;;;;;;;9.08;100.00;99507.93;1690356;82;21109;-47
2022/09/22 06:08:57;;;;;;;4.03;3.62;;;;;;;9.08;100.00;99510.62;1665101;83;21082;-48
2022/09/22 06:11:24;;;;;;;4.85;4.45;;;;;;;9.09;100.00;99512.36;1698248;82;21143;-48
2022/09/22 06:13:50;;;;;;;4.33;4.00;;;;;;;9.11;100.00;99510.45;1694983;82;21751;-47
2022/09/22 06:16:17;;;;;;;4.67;4.28;;;;;;;9.11;100.00;99506.89;1702043;82;21497;-48
2022/09/22 06:18:46;;;;;;;4.17;3.85;;;;;;;9.13;100.00;99509.52;1693304;82;21869;-48
2022/09/22 06:21:15;;;;;;;4.35;4.10;;;;;;;9.11;100.00;99510.45;1700078;82;22154;-49
2022/09/22 06:23:42;;;;;;;3.90;3.35;;;;;;;9.14;100.00;99512.61;1700802;82;21016;-49
2022/09/22 06:26:09;;;;;;;3.47;3.00;;;;;;;9.17;100.00;99509.79;1697698;82;22766;-48
2022/09/22 06:28:35;;;;;;;7.20;4.95;;;;;;;9.22;100.00;99507.75;1702111;82;22005;-47
2022/09/22 06:31:01;;;;;;;3.83;3.37;;;;;;;9.26;100.00;99512.92;1702108;82;20990;-48
2022/09/22 06:33:28;;;;;;;7.87;4.90;;;;;;;9.29;100.00;99502.02;1669458;83;20995;-48
2022/09/22 06:35:56;;;;;;;2.72;2.52;;;;;;;9.33;100.00;99507.66;1666287;83;21480;-48
2022/09/22 06:38:22;;;;;;;2.98;2.58;;;;;;;9.37;100.00;99505.68;1705157;82;23039;-48
2022/09/22 06:40:50;;;;;;;4.40;3.08;;;;;;;9.40;100.00;99506.42;1701615;82;21018;-48
2022/09/22 06:43:21;;;;;;;4.17;2.60;;;;;;;9.43;100.00;99508.97;1699149;81;21076;-50
2022/09/22 06:45:51;;;;;;;3.08;2.87;;;;;;;9.45;100.00;99507.53;1703864;82;21127;-50
2022/09/22 06:48:20;;;;;;;4.22;2.85;;;;;;;9.52;100.00;99514.85;1694884;82;21116;-48
2022/09/22 06:50:51;;;;;;;3.40;3.20;;;;;;;9.57;100.00;99511.45;1701936;82;21629;-46
2022/09/22 06:53:18;;;;;;;5.37;2.62;;;;;;;9.61;100.00;99519.28;1698913;82;21014;-48
2022/09/22 06:55:44;;;;;;;2.70;2.50;;;;;;;9.65;100.00;99523.58;1701232;82;21139;-47
2022/09/22 06:58:12;;;;;;;3.10;2.58;;;;;;;9.68;100.00;99522.11;1696311;82;21136;-47
2022/09/22 07:00:40;;;;;;;2.95;2.65;;;;;;;9.71;100.00;99519.72;1699645;81;21013;-50
2022/09/22 07:03:19;;;;;;;2.58;2.37;;;;;;;9.72;100.00;99520.99;1705476;82;22894;-48
2022/09/22 07:06:00;;;;;;;2.55;2.35;;;;;;;9.73;100.00;99530.80;1666806;83;22180;-49
2022/09/22 07:08:28;;;;;;;1.95;1.70;;;;;;;9.74;100.00;99535.70;1697704;82;21063;-50
2022/09/22 07:11:01;;;;;;;3.95;2.15;;;;;;;9.78;100.00;99535.47;1696062;82;21522;-47
2022/09/22 07:13:30;;;;;;;2.20;1.90;;;;;;;9.81;100.00;99532.64;1698943;82;21168;-46
2022/09/22 07:16:14;;;;;;;3.45;1.90;;;;;;;9.85;100.00;99534.73;1699689;82;21675;-48
2022/09/22 07:18:48;;;;;;;2.72;2.47;;;;;;;9.90;100.00;99539.86;1696725;81;21496;-46
2022/09/22 07:21:26;;;;;;;3.00;2.35;;;;;;;9.96;100.00;99534.17;1697480;82;21120;-48
2022/09/22 07:23:54;;;;;;;1.95;1.85;;;;;;;10.01;100.00;99529.47;1699148;82;21108;-48
2022/09/22 07:26:29;;;;;;;1.65;1.55;;;;;;;10.06;100.00;99539.51;1695533;81;21069;-50
2022/09/22 07:28:58;;;;;;;2.02;1.62;;;;;;;10.08;100.00;99534.45;1699188;82;21720;-47
2022/09/22 07:31:26;;;;;;;1.55;1.45;;;;;;;10.11;100.00;99531.62;1704736;82;21077;-47
2022/09/22 07:33:52;;;;;;;1.50;1.25;;;;;;;10.14;100.00;99539.99;1682580;82;21140;-47
2022/09/22 07:36:21;;;;;;;1.27;1.17;;;;;;;10.21;100.00;99538.77;1683591;82;21152;-48
2022/09/22 07:38:50;;;;;;;1.32;1.22;;;;;;;10.26;100.00;99549.31;1684871;82;21078;-50
2022/09/22 07:41:22;;;;;;;1.10;1.00;;;;;;;10.33;100.00;99555.66;1676430;83;22836;-47
2022/09/22 07:43:51;;;;;;;1.40;1.27;;;;;;;10.40;100.00;99556.20;1663699;83;21636;-47
2022/09/22 07:46:18;;;;;;;3.33;0.95;;;;;;;10.44;100.00;99545.70;1646961;85;21026;-46
2022/09/22 07:48:46;;;;;;;1.05;0.95;;;;;;;10.47;100.00;99549.56;1703208;82;21124;-49
2022/09/22 07:51:20;;;;;;;1.30;1.20;;;;;;;10.53;100.00;99550.14;1703191;82;21425;-50
2022/09/22 07:54:06;;;;;;;1.40;1.10;;;;;;;10.59;100.00;99548.95;1702276;82;22593;-48
2022/09/22 07:56:40;;;;;;;14.55;5.15;;;;;;;10.65;100.00;99546.41;1668944;83;21571;-47
2022/09/22 07:59:09;;;;;;;2.42;2.20;;;;;;;10.72;100.00;99542.47;1675021;82;21118;-51
2022/09/22 08:01:40;;;;;;;2.05;1.95;;;;;;;10.80;100.00;99546.98;1696443;82;21077;-46
2022/09/22 08:04:11;;;;;;;2.00;1.90;;;;;;;10.80;100.00;99546.98;1703669;82;21112;-48
2022/09/22 08:06:38;;;;;;;1.85;1.75;;;;;;;10.75;100.00;99527.48;1697862;82;21615;-46
2022/09/22 08:09:05;;;;;;;3.37;2.00;;;;;;;10.75;100.00;99527.48;1696289;82;21137;-47
2022/09/22 08:11:32;;;;;;;2.30;1.72;;;;;;;10.78;100.00;99532.72;1697225;82;21145;-48
2022/09/22 08:14:04;;;;;;;2.30;1.80;;;;;;;10.79;100.00;99527.26;1695660;82;21081;-50
2022/09/22 08:16:33;;;;;;;1.70;1.60;;;;;;;10.84;100.00;99527.87;1698112;82;21396;-46
2022/09/22 08:19:09;;;;;;;2.33;2.12;;;;;;;10.88;100.00;99528.13;1700035;82;21773;-46
2022/09/22 08:21:34;;;;;;;1.87;1.75;;;;;;;10.91;100.00;99525.72;1701385;82;21081;-46
2022/09/22 08:24:02;;;;;;;2.35;1.57;;;;;;;10.93;100.00;99529.21;1697876;82;21053;-46
2022/09/22 08:26:29;;;;;;;1.35;1.25;;;;;;;10.93;100.00;99529.21;1699413;82;21193;-48
2022/09/22 08:28:56;;;;;;;2.67;1.47;;;;;;;10.93;100.00;99530.55;1693530;82;21091;-48
2022/09/22 08:31:24;;;;;;;15.20;6.50;;;;;;;10.96;100.00;99535.79;1666203;83;22369;-49
2022/09/22 08:33:51;;;;;;;4.10;1.30;;;;;;;10.97;100.00;99541.06;1685815;82;21449;-47
2022/09/22 08:36:18;;;;;;;1.67;1.42;;;;;;;11.00;100.00;99535.53;1646513;85;21116;-48
2022/09/22 08:38:47;;;;;;;1.82;1.60;;;;;;;11.03;100.00;99536.33;1674303;83;21050;-48
2022/09/22 08:41:42;;;;;;;1.00;0.90;;;;;;;11.07;100.00;99539.23;1698097;82;21080;-47
2022/09/22 08:44:17;;;;;;;1.00;0.90;;;;;;;11.10;100.00;99539.08;1700920;82;23097;-46
2022/09/22 08:46:45;;;;;;;1.60;1.37;;;;;;;11.09;100.00;99535.98;1702003;82;21556;-47
2022/09/22 08:52:47;;;;;;;3.10;0.90;;;;;;;11.14;100.00;99537.98;1675492;83;21556;-45
2022/09/22 08:55:21;;;;;;;0.60;0.60;;;;;;;11.17;100.00;99538.66;1644252;85;21069;-49
2022/09/22 08:57:58;;;;;;;0.80;0.70;;;;;;;11.23;100.00;99542.84;1683916;82;21808;-48
2022/09/22 09:00:24;;;;;;;1.30;0.93;;;;;;;11.28;100.00;99537.62;1666505;83;21046;-50
2022/09/22 09:03:17;;;;;;;0.80;0.70;;;;;;;11.38;100.00;99538.86;1702117;82;21081;-46
2022/09/22 09:06:09;;;;;;;0.55;0.50;;;;;;;11.44;100.00;99533.59;1697958;82;21069;-50
2022/09/22 09:09:02;;;;;;;0.82;0.60;;;;;;;11.57;100.00;99545.94;1696881;82;21073;-49
2022/09/22 09:11:36;;;;;;;1.62;0.62;;;;;;;11.63;100.00;99545.11;1698316;82;22607;-47
2022/09/22 09:14:18;;;;;;;0.70;0.70;;;;;;;11.66;100.00;99544.92;1700848;82;21097;-48
2022/09/22 09:16:51;;;;;;;0.85;0.75;;;;;;;11.66;100.00;99542.70;1621867;84;21200;-51
2022/09/22 09:19:36;;;;;;;1.12;0.65;;;;;;;11.67;100.00;99537.22;1668726;82;21140;-49
2022/09/22 09:22:23;;;;;;;0.72;0.60;;;;;;;11.69;100.00;99538.49;1696691;82;21140;-46
2022/09/22 09:24:49;;;;;;;0.68;0.60;;;;;;;11.73;100.00;99540.95;1698823;82;21676;-48
2022/09/22 09:27:20;;;;;;;0.70;0.62;;;;;;;11.79;100.00;99533.49;1699152;82;21093;-48
2022/09/22 09:30:13;;;;;;;0.62;0.50;;;;;;;11.84;100.00;99534.95;1701146;82;21022;-48
2022/09/22 09:32:56;;;;;;;0.70;0.50;;;;;;;11.87;100.00;99536.14;1699218;82;21084;-50
2022/09/22 09:35:27;;;;;;;0.50;0.50;;;;;;;11.90;100.00;99532.41;1707099;82;21086;-47
2022/09/22 09:37:57;;;;;;;0.40;0.40;;;;;;;11.89;100.00;99528.84;1692333;82;22462;-47
2022/09/22 09:40:23;;;;;;;0.70;0.30;;;;;;;11.90;100.00;99537.80;1703248;82;21572;-46
2022/09/22 09:43:02;;;;;;;0.30;0.30;;;;;;;11.90;100.00;99531.94;1702938;82;21164;-50
2022/09/22 09:45:56;;;;;;;0.40;0.40;;;;;;;11.92;100.00;99532.69;1701693;82;21072;-47
2022/09/22 09:49:05;;;;;;;0.45;0.40;;;;;;;11.95;100.00;99539.27;1696460;82;21067;-47
2022/09/22 09:51:37;;;;;;;0.60;0.40;;;;;;;11.97;100.00;99536.02;1702362;82;21744;-47
2022/09/22 09:54:08;;;;;;;1.32;0.50;;;;;;;11.99;100.00;99535.42;1700632;82;21002;-47
2022/09/22 09:56:36;;;;;;;0.53;0.50;;;;;;;11.99;100.00;99539.47;1696774;82;20973;-47
2022/09/22 10:01:53;;;;;;;1.95;0.80;;;;;;;11.90;100.00;99540.03;1711730;81;21014;-48
2022/09/22 10:04:29;;;;;;;0.55;0.50;;;;;;;11.88;100.00;99541.94;1732483;81;21633;-48
2022/09/22 10:07:19;;;;;;;0.45;0.45;;;;;;;11.89;100.00;99536.06;1729644;81;21063;-49
2022/09/22 10:09:50;;;;;;;0.60;0.55;;;;;;;11.93;100.00;99539.83;1731630;81;21023;-49
2022/09/22 10:12:32;;;;;;;0.40;0.40;;;;;;;12.00;100.00;99539.00;1727131;81;21052;-47
2022/09/22 10:15:00;;;;;;;0.50;0.50;;;;;;;12.05;100.00;99535.57;1697632;83;21021;-46
2022/09/22 10:17:32;;;;;;;1.50;0.50;;;;;;;12.11;100.00;99540.60;1680576;83;21680;-47
2022/09/22 10:20:21;;;;;;;0.70;0.60;;;;;;;12.18;100.00;99539.77;1665486;84;21053;-50
2022/09/22 10:22:48;;;;;;;0.70;0.50;;;;;;;12.19;100.00;99537.45;1690456;83;21112;-50
2022/09/22 10:25:24;;;;;;;0.60;0.50;;;;;;;12.23;100.00;99544.44;1698230;83;21053;-46
2022/09/22 10:28:08;;;;;;;0.60;0.50;;;;;;;12.23;100.00;99543.95;1702345;83;21817;-46
2022/09/22 10:30:38;;;;;;;0.90;0.65;;;;;;;12.22;100.00;99548.09;1698961;83;21686;-48
2022/09/22 10:33:20;;;;;;;1.90;0.82;;;;;;;12.18;100.00;99538.41;1671676;84;21094;-48
2022/09/22 10:36:05;;;;;;;0.88;0.78;;;;;;;12.16;100.00;99547.97;1699618;83;21067;-46
2022/09/22 10:38:39;;;;;;;1.00;0.72;;;;;;;12.13;100.00;99550.36;1675520;83;21649;-46
2022/09/22 10:41:26;;;;;;;1.10;0.80;;;;;;;12.12;100.00;99545.05;1709510;82;21073;-47
2022/09/22 10:43:59;;;;;;;1.17;0.88;;;;;;;12.10;100.00;99552.35;1709176;82;22338;-50
2022/09/22 10:47:20;;;;;;;2.62;0.80;;;;;;;12.11;100.00;99543.30;1686904;82;21001;-48
2022/09/22 10:50:13;;;;;;;1.07;0.70;;;;;;;12.08;100.00;99550.21;1711022;82;21063;-48
2022/09/22 10:52:57;;;;;;;1.30;0.70;;;;;;;12.03;100.00;99543.75;1661470;82;21073;-46
2022/09/22 10:55:29;;;;;;;0.80;0.70;;;;;;;12.03;100.00;99539.70;1707318;82;21306;-47
2022/09/22 10:58:10;;;;;;;0.78;0.60;;;;;;;12.06;100.00;99542.23;1712386;82;22460;-48
2022/09/22 11:00:38;;;;;;;4.67;0.68;;;;;;;12.14;100.00;99543.14;1709575;82;21693;-50
2022/09/22 11:03:24;;;;;;;0.50;0.50;;;;;;;12.25;100.00;99541.17;1701276;82;21066;-47
2022/09/22 11:12:41;;;;;;;0.62;0.50;;;;;;;12.45;100.00;99526.88;1695498;82;21583;-47
2022/09/22 11:15:31;;;;;;;0.40;0.40;;;;;;;12.47;100.00;99530.84;1691473;81;21317;-48
2022/09/22 11:18:21;;;;;;;2.00;0.42;;;;;;;12.50;100.00;99529.32;1690217;82;21077;-46
2022/09/22 11:21:05;;;;;;;0.37;0.30;;;;;;;12.56;100.00;99533.47;1689934;81;21559;-47
2022/09/22 11:23:51;;;;;;;2.15;0.50;;;;;;;12.64;100.00;99523.95;1644352;82;21058;-48
2022/09/22 11:26:46;;;;;;;0.40;0.40;;;;;;;12.71;100.00;99531.19;1669704;82;22347;-49
2022/09/22 11:29:44;;;;;;;0.60;0.50;;;;;;;12.77;100.00;99522.23;1691674;82;21086;-47
2022/09/22 11:32:53;;;;;;;0.53;0.40;;;;;;;12.79;100.00;99532.47;1690856;82;21066;-46
2022/09/22 11:35:49;;;;;;;0.40;0.40;;;;;;;12.80;100.00;99522.54;1694828;82;21098;-50
2022/09/22 11:38:48;;;;;;;0.37;0.30;;;;;;;12.77;100.00;99517.31;1692408;82;21327;-48
2022/09/22 11:41:27;;;;;;;0.40;0.30;;;;;;;12.72;100.00;99520.78;1692006;82;21610;-51
2022/09/22 11:44:15;;;;;;;0.57;0.30;;;;;;;12.66;100.00;99517.98;1690271;82;21065;-49
2022/09/22 11:47:16;;;;;;;0.50;0.40;;;;;;;12.60;100.00;99512.93;1690415;82;21113;-48
2022/09/22 11:50:28;;;;;;;0.40;0.30;;;;;;;12.53;100.00;99514.27;1692045;82;22271;-48
2022/09/22 11:53:37;;;;;;;0.40;0.30;;;;;;;12.46;100.00;99518.30;1692178;82;21081;-48
2022/09/22 11:56:40;;;;;;;0.72;0.47;;;;;;;12.41;100.00;99521.29;1693773;82;21700;-48
2022/09/22 11:59:27;;;;;;;0.60;0.42;;;;;;;12.37;100.00;99510.27;1700396;82;21562;-49
2022/09/22 12:01:54;;;;;;;0.40;0.40;;;;;;;12.34;100.00;99518.53;1694998;82;22216;-51
2022/09/22 12:04:52;;;;;;;0.40;0.40;;;;;;;12.30;100.00;99519.69;1699170;82;21132;-48
2022/09/22 12:07:26;;;;;;;0.50;0.40;;;;;;;12.28;100.00;99522.08;1699161;82;21499;-47
2022/09/22 12:09:59;;;;;;;;;;;;;;;12.22;100.00;99521.10;1696665;82;21686;-46
2022/09/22 12:12:26;;;;;;;0.62;0.47;;;;;;;12.19;100.00;99517.22;1700496;82;20366;-48
2022/09/22 12:15:07;;;;;;;0.55;0.40;;;;;;;12.16;100.00;99522.34;1698712;82;21658;-49
2022/09/22 12:17:42;;;;;;;0.47;0.40;;;;;;;12.16;100.00;99514.72;1706015;81;21038;-52